Time;durP1;ratioP1;P1;durP2;ratioP2;P2;SDS_P1;SDS_P2;PMS_P1;PMS_P2;Temp;Humidity;BMP_temperature;BMP_pressure;BME280_temperature;BME280_humidity;BME280_pressure;Samples;Min_cycle;Max_cycle;Signal;HPM_P1;HPM_P2
2022/12/13 00:00:17;;;;;;;;;32.75;25.75;;;;;2.18;53.24;100077.03;5064176;28;55264;-47
2022/12/13 00:02:43;;;;;;;;;40.25;26.50;;;;;2.20;53.11;100073.59;5074474;28;46825;-48
2022/12/13 00:05:09;;;;;;;;;36.50;24.75;;;;;2.21;52.98;100065.00;5076835;27;45302;-50
2022/12/13 00:07:34;;;;;;;;;30.50;21.50;;;;;2.23;52.68;100064.97;5074976;28;45527;-50
2022/12/13 00:10:00;;;;;;;;;36.50;23.00;;;;;2.24;52.82;100069.28;5079316;27;45767;-49
2022/12/13 00:12:25;;;;;;;;;31.25;22.25;;;;;2.24;52.90;100064.97;5079084;27;45572;-53
2022/12/13 00:14:51;;;;;;;;;33.25;24.75;;;;;2.30;52.75;100060.66;5079763;27;45632;-52
2022/12/13 00:17:16;;;;;;;;;36.25;24.00;;;;;2.31;52.73;100057.22;5081990;27;48881;-51
2022/12/13 00:19:41;;;;;;;;;32.25;22.25;;;;;2.28;52.33;100063.22;5068665;27;45410;-51
2022/12/13 00:22:07;;;;;;;;;29.25;22.25;;;;;2.22;52.49;100051.22;5092317;27;55899;-51
2022/12/13 00:24:32;;;;;;;;;33.50;25.50;;;;;2.21;52.69;100059.84;5071007;27;45367;-48
2022/12/13 00:26:57;;;;;;;;;33.00;25.00;;;;;2.20;52.49;100063.28;5083304;27;45312;-50
2022/12/13 00:29:23;;;;;;;;;30.00;17.75;;;;;2.23;52.71;100047.78;5082119;27;45374;-53
2022/12/13 00:31:48;;;;;;;;;35.50;21.50;;;;;2.24;52.43;100043.47;5078045;28;45427;-52
2022/12/13 00:34:14;;;;;;;;;28.00;19.50;;;;;2.22;52.28;100040.03;5091797;27;57932;-52
2022/12/13 00:36:39;;;;;;;;;35.50;24.50;;;;;2.21;52.35;100035.72;5084022;27;45457;-48
2022/12/13 00:39:05;;;;;;;;;29.75;21.00;;;;;2.22;52.13;100035.72;5092193;27;45323;-51
2022/12/13 00:41:32;;;;;;;;;26.50;21.25;;;;;2.24;52.29;100038.31;5081613;28;45877;-51
2022/12/13 00:43:58;;;;;;;;;30.25;22.00;;;;;2.24;52.41;100041.75;5073066;28;45339;-48
2022/12/13 00:46:24;;;;;;;;;26.50;24.50;;;;;2.26;51.97;100041.72;5082567;27;45697;-49
2022/12/13 00:48:52;;;;;;;;;29.25;19.25;;;;;2.19;51.50;100040.91;5076254;28;45315;-49
2022/12/13 00:51:18;;;;;;;;;25.50;17.75;;;;;2.15;52.17;100040.94;5079849;27;46340;-48
2022/12/13 00:53:44;;;;;;;;;24.25;21.00;;;;;2.14;51.88;100036.63;5080361;28;45658;-47
2022/12/13 00:56:16;;;;;;;;;28.50;19.00;;;;;2.10;51.65;100030.59;5087808;27;45394;-51
2022/12/13 00:58:41;;;;;;;;;32.25;22.75;;;;;2.06;51.81;100024.59;5074313;28;45511;-51
2022/12/13 01:01:09;;;;;;;;;30.00;22.00;;;;;2.08;51.82;100035.78;5074802;27;56832;-49
2022/12/13 01:03:35;;;;;;;;;30.00;19.25;;;;;2.10;51.86;100040.94;5075411;27;45316;-51
2022/12/13 01:06:00;;;;;;;;;26.50;18.00;;;;;2.11;52.06;100041.78;5088936;27;45528;-50
2022/12/13 01:08:27;;;;;;;;;26.00;17.50;;;;;2.11;51.65;100040.09;5072311;28;45456;-48
2022/12/13 01:10:53;;;;;;;;;27.75;20.25;;;;;2.08;51.59;100037.50;5085278;27;46205;-48
2022/12/13 01:13:19;;;;;;;;;31.75;21.00;;;;;2.04;51.78;100040.97;5075029;27;45301;-49
2022/12/13 01:15:45;;;;;;;;;26.25;18.50;;;;;2.03;51.63;100034.94;5098961;27;45484;-50
2022/12/13 01:18:12;;;;;;;;;32.50;20.75;;;;;2.06;51.66;100041.81;5074989;28;45411;-52
2022/12/13 01:20:38;;;;;;;;;34.50;19.75;;;;;2.05;51.74;100043.56;5074002;28;45763;-51
2022/12/13 01:23:04;;;;;;;;;18.50;14.50;;;;;2.05;51.60;100046.13;5076654;28;45260;-50
2022/12/13 01:25:31;;;;;;;;;28.00;20.00;;;;;2.02;51.93;100035.81;5085534;27;45314;-47
2022/12/13 01:27:57;;;;;;;;;26.25;18.75;;;;;2.05;51.66;100032.34;5075889;27;45471;-50
2022/12/13 01:30:23;;;;;;;;;26.00;18.50;;;;;2.04;51.76;100031.50;5066680;28;47693;-47
2022/12/13 01:32:48;;;;;;;;;27.25;20.25;;;;;2.05;51.43;100038.38;5072299;27;62431;-47
2022/12/13 01:35:14;;;;;;;;;29.50;20.75;;;;;2.02;51.69;100040.09;5068036;27;45265;-49
2022/12/13 01:37:39;;;;;;;;;27.75;19.25;;;;;2.02;51.78;100030.66;5065946;28;45346;-50
2022/12/13 01:40:05;;;;;;;;;33.25;21.50;;;;;2.04;51.09;100021.19;5066410;28;46055;-48
2022/12/13 01:42:30;;;;;;;;;28.75;21.00;;;;;2.01;51.40;100016.00;5088070;27;46401;-46
2022/12/13 01:45:28;;;;;;;;;26.75;18.50;;;;;1.98;51.35;100012.59;5073111;27;60595;-48
2022/12/13 01:47:59;;;;;;;;;23.50;18.75;;;;;1.94;51.44;100021.22;5064891;28;45641;-48
2022/12/13 01:50:33;;;;;;;;;56.00;34.25;;;;;1.97;51.41;100028.97;5073037;28;45420;-47
2022/12/13 01:52:59;;;;;;;;;26.50;19.50;;;;;1.96;51.28;100024.66;5065781;28;45543;-48
2022/12/13 01:55:27;;;;;;;;;30.00;18.50;;;;;1.92;51.02;100028.97;5075676;27;45739;-48
2022/12/13 01:57:54;;;;;;;;;23.00;16.75;;;;;1.92;51.19;100026.38;5067218;27;45479;-48
2022/12/13 02:00:19;;;;;;;;;26.25;18.25;;;;;1.95;50.78;100021.22;5073771;28;45431;-49
2022/12/13 02:02:47;;;;;;;;;26.25;16.75;;;;;1.88;50.70;100029.84;5062337;28;45322;-53
2022/12/13 02:05:22;;;;;;;;;24.50;17.25;;;;;1.87;51.36;100031.53;5077495;27;53190;-49
2022/12/13 02:07:48;;;;;;;;;18.50;10.00;;;;;1.90;51.13;100041.84;5073884;27;45772;-48
2022/12/13 02:10:13;;;;;;;;;29.00;21.25;;;;;1.89;51.03;100035.00;5069988;27;68914;-50
2022/12/13 02:12:39;;;;;;;;;24.25;17.25;;;;;1.89;51.01;100032.41;5067458;28;45429;-50
2022/12/13 02:15:10;;;;;;;;;25.75;16.75;;;;;1.89;50.85;100031.53;5076768;27;64251;-47
2022/12/13 02:17:51;;;;;;;;;17.75;13.50;;;;;1.91;51.11;100027.22;5074772;27;45470;-47
2022/12/13 02:20:51;;;;;;;;;18.25;17.00;;;;;1.93;51.13;100033.28;5071643;28;48160;-48
2022/12/13 02:23:53;;;;;;;;;28.00;17.00;;;;;1.95;50.53;100043.56;5064816;28;45221;-48
2022/12/13 02:26:43;;;;;;;;;31.00;16.50;;;;;1.94;51.13;100028.97;5073642;27;45623;-47
2022/12/13 02:29:27;;;;;;;;;21.00;15.50;;;;;1.90;50.63;100026.38;5072523;27;45413;-48
2022/12/13 02:32:04;;;;;;;;;19.50;14.75;;;;;1.86;50.86;100027.25;5072663;28;46540;-47
2022/12/13 02:34:39;;;;;;;;;21.75;17.50;;;;;1.89;50.83;100034.13;5065945;27;45709;-51
2022/12/13 02:37:19;;;;;;;;;19.00;10.00;;;;;1.89;51.08;100029.84;5067292;28;45365;-50
2022/12/13 02:39:54;;;;;;;;;21.50;17.00;;;;;1.92;50.63;100028.97;5075136;28;45703;-50
2022/12/13 02:42:34;;;;;;;;;17.50;15.25;;;;;1.89;50.55;100027.25;5074905;28;46386;-48
2022/12/13 02:45:26;;;;;;;;;18.00;14.50;;;;;1.88;50.56;100022.94;5073637;27;45445;-49
2022/12/13 02:47:53;;;;;;;;;21.75;12.00;;;;;1.93;50.27;100028.09;5074673;28;45286;-50
2022/12/13 02:50:20;;;;;;;;;24.75;17.75;;;;;1.96;50.34;100019.47;5066654;28;45395;-50
2022/12/13 02:52:45;;;;;;;;;22.50;18.00;;;;;1.98;50.59;100020.34;5073595;28;46797;-48
2022/12/13 02:55:13;;;;;;;;;17.25;12.25;;;;;2.00;49.86;100028.91;5093573;27;57943;-47
2022/12/13 02:57:42;;;;;;;;;16.75;14.00;;;;;2.00;50.46;100027.22;5076474;27;45382;-52
2022/12/13 03:00:08;;;;;;;;;14.00;9.75;;;;;1.96;50.01;100017.75;5063484;28;45478;-49
2022/12/13 03:02:53;;;;;;;;;27.50;15.75;;;;;1.94;49.52;100018.63;5086900;27;46470;-50
2022/12/13 03:09:06;;;;;;;;;20.50;14.75;;;;;1.93;49.95;100020.38;5069956;28;45472;-48
2022/12/13 03:14:25;;;;;;;;;24.75;19.00;;;;;1.99;49.68;99997.09;5066220;28;45440;-50
2022/12/13 03:16:51;;;;;;;;;18.50;15.00;;;;;1.99;50.21;100001.41;5073541;27;65019;-50
2022/12/13 03:19:17;;;;;;;;;26.25;17.75;;;;;2.00;50.05;99998.84;5072211;28;45770;-52
2022/12/13 03:21:48;;;;;;;;;23.75;14.50;;;;;1.94;49.82;99988.53;5075536;27;45476;-52
2022/12/13 03:24:18;;;;;;;;;22.00;18.00;;;;;1.90;49.61;99987.69;5063305;27;57053;-53
2022/12/13 03:26:44;;;;;;;;;21.50;16.50;;;;;1.85;49.67;99985.97;5080135;27;45469;-51
2022/12/13 03:29:09;;;;;;;;;26.00;17.00;;;;;1.82;50.27;99984.25;5077780;27;45381;-52
2022/12/13 03:31:35;;;;;;;;;17.75;15.25;;;;;1.82;49.72;99985.97;5075916;27;62676;-52
2022/12/13 03:34:00;;;;;;;;;24.75;15.50;;;;;1.83;49.72;99987.72;5064840;27;45299;-52
2022/12/13 03:36:26;;;;;;;;;22.25;16.75;;;;;1.81;50.09;99985.13;5065651;27;60414;-52
2022/12/13 03:38:52;;;;;;;;;20.00;14.75;;;;;1.85;49.92;99981.66;5075713;27;45369;-48
2022/12/13 03:41:20;;;;;;;;;22.25;13.75;;;;;1.86;49.50;99983.41;5077400;28;45379;-49
2022/12/13 03:43:46;;;;;;;;;20.25;17.00;;;;;1.86;49.46;99974.78;5069648;28;46455;-47
2022/12/13 03:46:11;;;;;;;;;21.25;16.00;;;;;1.83;49.63;99970.50;5083240;27;45399;-50
2022/12/13 03:48:37;;;;;;;;;18.00;14.50;;;;;1.84;49.74;99981.69;5071551;28;61569;-48
2022/12/13 03:51:02;;;;;;;;;22.00;16.50;;;;;1.81;49.42;99982.56;5062848;27;45659;-49
2022/12/13 03:53:29;;;;;;;;;20.75;16.00;;;;;1.77;49.48;99974.81;5063450;27;53347;-48
2022/12/13 03:55:54;;;;;;;;;22.75;13.25;;;;;1.77;49.78;99985.13;5074651;27;45942;-47
2022/12/13 03:58:20;;;;;;;;;21.25;14.00;;;;;1.79;49.75;99986.00;5073174;28;45345;-48
2022/12/13 04:00:45;;;;;;;;;11.25;11.25;;;;;1.79;49.91;99981.72;5067033;27;45224;-50
2022/12/13 04:03:11;;;;;;;;;21.75;13.50;;;;;1.81;49.63;99976.53;5064415;27;47328;-50
2022/12/13 04:05:36;;;;;;;;;26.50;16.75;;;;;1.81;49.49;99992.03;5086876;27;54959;-49
2022/12/13 04:08:02;;;;;;;;;19.75;15.00;;;;;1.76;49.65;99994.59;5070398;28;45387;-47
2022/12/13 04:10:27;;;;;;;;;21.00;16.75;;;;;1.76;49.83;99994.59;5079156;27;45372;-48
2022/12/13 04:15:37;;;;;;;;;21.75;13.75;;;;;1.82;49.50;99994.56;5072967;27;45722;-49
2022/12/13 04:18:03;;;;;;;;;16.50;13.25;;;;;1.78;49.32;99992.88;5076156;28;45956;-48
2022/12/13 04:20:28;;;;;;;;;21.75;14.75;;;;;1.76;49.86;99988.59;5076170;27;45398;-47
2022/12/13 04:22:53;;;;;;;;;32.50;17.00;;;;;1.78;49.67;99985.13;5069061;28;64285;-48
2022/12/13 04:25:19;;;;;;;;;20.50;15.75;;;;;1.79;49.82;99986.00;5074979;27;60343;-48
2022/12/13 04:27:45;;;;;;;;;21.25;19.75;;;;;1.77;49.48;99978.28;5073987;27;45411;-50
2022/12/13 04:30:11;;;;;;;;;23.00;17.00;;;;;1.74;49.62;99983.44;5048034;28;45478;-51
2022/12/13 04:32:36;;;;;;;;;25.75;16.25;;;;;1.75;49.67;99977.41;5070054;28;46199;-49
2022/12/13 04:35:01;;;;;;;;;19.00;15.00;;;;;1.74;49.56;99973.13;5062084;27;61075;-49
2022/12/13 04:37:27;;;;;;;;;25.25;17.00;;;;;1.75;49.67;99968.81;5070593;28;45621;-52
2022/12/13 04:39:53;;;;;;;;;17.50;14.75;;;;;1.76;49.96;99962.81;5071701;28;45473;-52
2022/12/13 04:42:18;;;;;;;;;29.50;18.75;;;;;1.80;49.42;99967.94;5063268;27;45767;-49
2022/12/13 04:44:43;;;;;;;;;17.75;13.75;;;;;1.79;49.64;99960.19;5066554;27;66906;-50
2022/12/13 04:47:09;;;;;;;;;31.50;20.50;;;;;1.79;49.51;99952.44;5075912;27;54418;-53
2022/12/13 04:49:34;;;;;;;;;29.00;20.00;;;;;1.73;49.51;99949.91;5070017;28;45469;-52
2022/12/13 04:52:01;;;;;;;;;26.00;18.50;;;;;1.70;49.43;99956.81;5060610;28;46135;-55
2022/12/13 04:54:26;;;;;;;;;24.75;16.00;;;;;1.69;49.57;99959.38;5068584;27;45905;-52
2022/12/13 04:56:52;;;;;;;;;16.25;10.50;;;;;1.70;49.22;99951.66;5074992;27;46205;-54
2022/12/13 04:59:17;;;;;;;;;29.75;21.50;;;;;1.69;49.67;99957.66;5062244;28;63637;-53
2022/12/13 05:01:43;;;;;;;;;25.50;22.25;;;;;1.70;49.72;99951.66;5084103;27;45889;-51
2022/12/13 05:04:08;;;;;;;;;28.50;18.50;;;;;1.68;49.39;99961.13;5068583;27;59830;-49
2022/12/13 05:06:33;;;;;;;;;32.25;19.50;;;;;1.65;49.74;99953.38;5073348;27;57889;-47
2022/12/13 05:09:00;;;;;;;;;21.00;16.75;;;;;1.62;49.72;99949.94;5071078;28;52147;-50
2022/12/13 05:11:25;;;;;;;;;22.50;16.50;;;;;1.62;49.60;99949.94;5074338;27;47444;-49
2022/12/13 05:13:51;;;;;;;;;23.75;18.50;;;;;1.64;49.89;99943.91;5067431;28;60482;-48
2022/12/13 05:16:16;;;;;;;;;25.00;18.25;;;;;1.66;49.74;99947.34;5067765;27;57105;-50
2022/12/13 05:18:41;;;;;;;;;27.25;17.75;;;;;1.67;49.79;99943.91;5071805;27;59776;-48
2022/12/13 05:21:09;;;;;;;;;30.00;21.75;;;;;1.70;49.52;99943.91;5068775;27;47016;-48
2022/12/13 05:23:35;;;;;;;;;23.00;16.00;;;;;1.71;49.46;99942.19;5068416;27;45374;-49
2022/12/13 05:26:02;;;;;;;;;28.00;20.50;;;;;1.71;49.66;99943.03;5080277;27;45284;-50
2022/12/13 05:28:28;;;;;;;;;25.50;18.75;;;;;1.64;49.37;99943.91;5082739;27;45568;-50
2022/12/13 05:30:55;;;;;;;;;29.00;19.25;;;;;1.60;49.65;99944.78;5076300;28;46298;-49
2022/12/13 05:33:22;;;;;;;;;23.25;20.00;;;;;1.58;49.59;99951.69;5075127;28;45960;-52
2022/12/13 05:35:47;;;;;;;;;24.00;20.75;;;;;1.57;50.10;99952.53;5079378;27;45534;-53
2022/12/13 05:38:13;;;;;;;;;24.50;20.00;;;;;1.61;49.74;99943.06;5086509;27;52328;-50
2022/12/13 05:40:38;;;;;;;;;26.25;20.50;;;;;1.55;49.57;99948.25;5071635;27;46084;-53
2022/12/13 05:43:04;;;;;;;;;31.50;21.25;;;;;1.56;49.78;99962.84;5062035;27;62966;-49
2022/12/13 05:45:30;;;;;;;;;24.25;21.00;;;;;1.55;49.53;99964.56;5068931;27;45450;-48
2022/12/13 05:47:56;;;;;;;;;22.50;18.25;;;;;1.55;49.93;99964.56;5070703;28;45432;-50
2022/12/13 05:50:21;;;;;;;;;26.25;20.25;;;;;1.56;49.61;99962.84;5070830;27;46543;-49
2022/12/13 05:52:46;;;;;;;;;29.50;21.25;;;;;1.56;49.69;99966.31;5069404;27;54689;-53
2022/12/13 05:55:13;;;;;;;;;37.50;22.75;;;;;1.55;49.92;99964.56;5073771;27;45461;-50
2022/12/13 05:57:38;;;;;;;;;25.25;17.50;;;;;1.54;49.84;99962.88;5078298;27;53961;-47
2022/12/13 06:00:06;;;;;;;;;32.50;19.25;;;;;1.51;49.95;99960.31;5073236;28;61108;-48
2022/12/13 06:02:35;;;;;;;;;37.50;22.25;;;;;1.49;49.98;99962.88;5065639;27;45283;-47
2022/12/13 06:05:01;;;;;;;;;21.50;17.50;;;;;1.46;50.02;99973.19;5090083;27;45477;-48
2022/12/13 06:07:27;;;;;;;;;28.75;17.00;;;;;1.41;50.27;99969.75;5066644;27;45469;-49
2022/12/13 06:09:52;;;;;;;;;19.75;18.75;;;;;1.43;50.31;99969.75;5072974;28;58169;-48
2022/12/13 06:12:17;;;;;;;;;22.75;19.50;;;;;1.43;50.27;99973.19;5070597;27;56564;-50
2022/12/13 06:14:43;;;;;;;;;24.00;19.50;;;;;1.47;50.34;99986.94;5055199;27;48189;-48
2022/12/13 06:17:08;;;;;;;;;28.75;21.50;;;;;1.47;50.03;99987.81;5068579;27;60764;-51
2022/12/13 06:19:33;;;;;;;;;22.75;17.75;;;;;1.46;50.53;99993.81;5071431;28;72277;-54
2022/12/13 06:21:59;;;;;;;;;22.25;13.00;;;;;1.47;50.33;99994.66;5068530;28;60832;-51
2022/12/13 06:24:26;;;;;;;;;31.75;18.50;;;;;1.43;50.38;99991.22;5074634;27;56910;-50
2022/12/13 06:26:51;;;;;;;;;25.75;21.75;;;;;1.45;50.40;99997.28;5077682;27;45545;-52
2022/12/13 06:29:18;;;;;;;;;26.00;23.25;;;;;1.49;50.25;100001.56;5075778;27;64512;-52
2022/12/13 06:31:44;;;;;;;;;27.00;18.25;;;;;1.49;50.12;100003.28;5070768;28;45797;-48
2022/12/13 06:34:09;;;;;;;;;29.50;24.25;;;;;1.46;50.30;100001.56;5064857;28;52883;-49
2022/12/13 06:36:35;;;;;;;;;23.00;19.25;;;;;1.46;50.07;99992.97;5076056;27;64770;-50
2022/12/13 06:39:05;;;;;;;;;52.00;35.00;;;;;1.43;50.31;99998.97;5089801;27;45426;-49
2022/12/13 06:41:30;;;;;;;;;20.75;20.00;;;;;1.46;50.43;99992.97;5062726;28;45391;-52
2022/12/13 06:43:57;;;;;;;;;33.75;21.50;;;;;1.46;50.55;99992.97;5076383;27;45423;-48
2022/12/13 06:46:22;;;;;;;;;24.50;18.00;;;;;1.45;50.40;99988.66;5083340;27;45544;-51
2022/12/13 06:48:48;;;;;;;;;21.00;19.75;;;;;1.43;50.55;99982.66;5090902;27;45330;-52
2022/12/13 06:51:14;;;;;;;;;30.75;21.25;;;;;1.46;50.40;99983.50;5072490;28;45471;-50
2022/12/13 06:53:39;;;;;;;;;27.00;19.75;;;;;1.53;50.42;99974.03;5072283;27;62620;-53
2022/12/13 06:56:07;;;;;;;;;25.75;21.25;;;;;1.57;49.91;99977.47;5078557;27;45504;-52
2022/12/13 06:58:33;;;;;;;;;29.00;20.50;;;;;1.54;50.04;99968.03;5089372;27;45595;-52
2022/12/13 07:01:09;;;;;;;;;29.00;22.75;;;;;1.56;50.07;99971.47;5062635;27;46030;-50
2022/12/13 07:03:35;;;;;;;;;31.25;23.50;;;;;1.55;49.90;99971.47;5064695;27;45507;-51
2022/12/13 07:06:06;;;;;;;;;43.50;24.50;;;;;1.54;49.76;99970.63;5074347;27;45525;-51
2022/12/13 07:08:32;;;;;;;;;29.50;23.50;;;;;1.50;49.94;99964.56;5066353;27;45677;-50
2022/12/13 07:10:57;;;;;;;;;34.00;26.00;;;;;1.49;49.88;99957.72;5069412;27;45470;-51
2022/12/13 07:13:23;;;;;;;;;28.50;20.50;;;;;1.50;50.11;99962.00;5066687;28;45169;-53
2022/12/13 07:15:49;;;;;;;;;30.50;24.25;;;;;1.54;49.87;99954.25;5076792;27;45641;-52
2022/12/13 07:18:15;;;;;;;;;31.50;22.75;;;;;1.56;49.92;99962.84;5075617;27;45384;-51
2022/12/13 07:20:41;;;;;;;;;30.50;20.25;;;;;1.53;50.22;99971.47;5079912;27;45662;-50
2022/12/13 07:23:06;;;;;;;;;31.50;24.25;;;;;1.51;50.20;99962.88;5077027;27;47518;-51
2022/12/13 07:25:32;;;;;;;;;29.00;24.50;;;;;1.51;50.23;99968.03;5079643;27;45489;-50
2022/12/13 07:28:02;;;;;;;;;36.75;24.75;;;;;1.50;50.21;99980.03;5074058;27;46225;-53
2022/12/13 07:30:27;;;;;;;;;39.25;26.25;;;;;1.52;50.06;99983.50;5075265;28;45380;-48
2022/12/13 07:32:53;;;;;;;;;33.50;25.25;;;;;1.51;50.49;99980.94;5073197;27;45489;-52
2022/12/13 07:35:18;;;;;;;;;27.25;20.50;;;;;1.54;50.25;99990.34;5073033;27;48792;-54
2022/12/13 07:37:44;;;;;;;;;29.50;25.00;;;;;1.57;50.09;99991.22;5076419;27;71513;-50
2022/12/13 07:40:09;;;;;;;;;34.00;26.25;;;;;1.59;50.21;99988.63;5071724;28;48037;-52
2022/12/13 07:42:35;;;;;;;;;32.50;23.25;;;;;1.59;50.17;99989.47;5064926;27;45423;-49
2022/12/13 07:45:00;;;;;;;;;35.67;24.67;;;;;1.62;50.14;99992.06;5075686;27;66780;-52
2022/12/13 07:47:30;;;;;;;;;37.00;27.00;;;;;1.61;50.06;99989.47;5076660;28;46294;-50
2022/12/13 07:49:55;;;;;;;;;32.50;25.25;;;;;1.61;50.03;100005.84;5072359;28;45427;-53
2022/12/13 07:52:21;;;;;;;;;25.50;21.50;;;;;1.58;49.78;100008.41;5068673;28;45890;-51
2022/12/13 07:54:46;;;;;;;;;25.25;21.50;;;;;1.57;50.05;100016.16;5072343;27;46996;-53
2022/12/13 07:57:12;;;;;;;;;30.50;28.00;;;;;1.57;50.05;100011.00;5074682;27;56892;-51
2022/12/13 07:59:37;;;;;;;;;36.25;29.00;;;;;1.58;50.11;100015.31;5071977;27;45472;-53
2022/12/13 08:02:02;;;;;;;;;36.25;22.25;;;;;1.58;50.12;100023.03;5068292;28;45722;-51
2022/12/13 08:04:28;;;;;;;;;35.00;25.75;;;;;1.59;49.91;100028.16;5062735;27;64460;-50
2022/12/13 08:06:53;;;;;;;;;33.50;25.25;;;;;1.58;50.11;100026.47;5072915;27;47095;-52
2022/12/13 08:09:19;;;;;;;;;35.50;28.75;;;;;1.58;49.83;100025.63;5061509;28;61161;-53
2022/12/13 08:11:44;;;;;;;;;32.50;26.50;;;;;1.61;50.04;100036.78;5065371;28;45209;-51
2022/12/13 08:14:09;;;;;;;;;27.75;26.00;;;;;1.62;49.95;100033.31;5072252;27;64430;-50
2022/12/13 08:16:35;;;;;;;;;33.75;21.50;;;;;1.62;50.11;100025.59;5065473;27;45247;-51
2022/12/13 08:19:00;;;;;;;;;36.75;27.25;;;;;1.67;50.01;100023.00;5074798;27;45554;-52
2022/12/13 08:21:25;;;;;;;;;32.50;23.25;;;;;1.71;49.89;100033.31;5067975;28;45357;-51
2022/12/13 08:23:51;;;;;;;;;31.75;26.25;;;;;1.75;49.71;100039.31;5061933;28;61898;-52
2022/12/13 08:26:16;;;;;;;;;50.75;27.50;;;;;1.74;49.49;100042.78;5080674;27;47248;-53
2022/12/13 08:28:41;;;;;;;;;30.50;26.25;;;;;1.76;49.75;100047.94;5079997;28;59859;-53
2022/12/13 08:31:10;;;;;;;;;39.50;28.75;;;;;1.78;49.87;100036.72;5074207;27;58133;-52
2022/12/13 08:33:37;;;;;;;;;31.50;23.25;;;;;1.78;49.40;100041.88;5063810;28;45236;-53
2022/12/13 08:36:09;;;;;;;;;34.00;25.75;;;;;1.78;49.55;100047.03;5088234;27;47290;-51
2022/12/13 08:38:35;;;;;;;;;42.00;31.75;;;;;1.78;49.20;100041.03;5081274;27;45712;-49
2022/12/13 08:41:00;;;;;;;;;35.50;22.75;;;;;1.77;49.54;100041.88;5076717;27;45181;-51
2022/12/13 08:43:25;;;;;;;;;37.25;29.50;;;;;1.78;49.64;100036.72;5075043;28;61776;-51
2022/12/13 08:45:51;;;;;;;;;34.00;25.50;;;;;1.77;49.41;100044.47;5074334;27;63074;-51
2022/12/13 08:48:16;;;;;;;;;39.00;26.50;;;;;1.74;49.64;100039.34;5066738;28;60443;-47
2022/12/13 08:50:41;;;;;;;;;37.00;25.50;;;;;1.79;49.62;100043.63;5063086;28;53741;-52
2022/12/13 08:53:07;;;;;;;;;34.75;26.50;;;;;1.86;49.71;100054.75;5072831;28;62322;-48
2022/12/13 08:55:32;;;;;;;;;39.75;27.25;;;;;1.90;49.43;100041.84;5074868;27;58260;-50
2022/12/13 08:57:58;;;;;;;;;37.00;29.50;;;;;1.92;49.59;100054.75;5080542;28;61330;-51
2022/12/13 09:00:23;;;;;;;;;41.00;28.75;;;;;1.95;49.44;100059.03;5076661;27;45306;-47
2022/12/13 09:02:49;;;;;;;;;34.25;28.50;;;;;1.99;49.10;100055.59;5064252;28;52003;-50
2022/12/13 09:05:15;;;;;;;;;44.25;29.00;;;;;1.98;49.37;100052.16;5090291;27;47414;-51
2022/12/13 09:07:41;;;;;;;;;41.50;31.25;;;;;1.98;49.38;100044.41;5080580;28;45262;-53
2022/12/13 09:10:08;;;;;;;;;43.25;30.50;;;;;2.02;49.18;100042.66;5073655;27;45355;-51
2022/12/13 09:12:34;;;;;;;;;32.75;25.50;;;;;2.02;49.42;100035.81;5066096;27;45340;-52
2022/12/13 09:14:59;;;;;;;;;34.00;23.00;;;;;2.02;49.27;100033.22;5077857;27;46052;-51
2022/12/13 09:17:25;;;;;;;;;43.00;32.50;;;;;1.99;49.16;100029.81;5077405;28;45457;-51
2022/12/13 09:19:51;;;;;;;;;47.50;31.50;;;;;2.00;49.30;100036.66;5069556;27;57966;-50
2022/12/13 09:22:16;;;;;;;;;41.50;32.25;;;;;2.00;48.84;100036.66;5069808;28;45461;-49
2022/12/13 09:24:42;;;;;;;;;37.00;26.75;;;;;2.01;49.02;100028.91;5065713;27;46104;-51
2022/12/13 09:27:08;;;;;;;;;38.75;28.25;;;;;2.01;48.95;100026.34;5072130;27;45496;-52
2022/12/13 09:29:34;;;;;;;;;41.00;31.25;;;;;1.98;49.13;100033.22;5075938;27;45485;-51
2022/12/13 09:32:00;;;;;;;;;40.00;27.75;;;;;2.01;49.21;100025.50;5067532;27;62811;-49
2022/12/13 09:34:25;;;;;;;;;45.50;33.50;;;;;2.01;49.21;100031.50;5071298;27;46093;-50
2022/12/13 09:36:50;;;;;;;;;42.00;30.50;;;;;2.03;49.34;100028.91;5076498;27;64042;-51
2022/12/13 09:39:16;;;;;;;;;33.50;28.25;;;;;2.03;49.03;100019.44;5069157;27;45441;-50
2022/12/13 09:41:48;;;;;;;;;47.00;28.00;;;;;2.01;48.79;100022.91;5076285;27;47300;-53
2022/12/13 09:44:20;;;;;;;;;39.00;36.75;;;;;2.04;49.13;100023.75;5079958;27;46874;-52
2022/12/13 09:46:46;;;;;;;;;38.50;29.75;;;;;2.05;48.78;100025.50;5079097;27;45821;-52
2022/12/13 09:49:27;;;;;;;;;47.00;33.25;;;;;2.07;49.05;100021.16;5075430;27;45492;-48
2022/12/13 09:51:57;;;;;;;;;34.50;28.75;;;;;2.12;49.04;100025.44;5067756;28;46881;-49
2022/12/13 09:54:23;;;;;;;;;44.25;32.75;;;;;2.18;49.13;100022.81;5070495;27;45540;-51
2022/12/13 09:56:53;;;;;;;;;33.25;29.00;;;;;2.23;48.88;100023.66;5096118;27;45535;-53
2022/12/13 09:59:32;;;;;;;;;43.00;27.50;;;;;2.26;48.31;100019.34;5070874;27;45493;-52
2022/12/13 10:02:11;;;;;;;;;50.75;33.75;;;;;2.28;48.64;100019.34;5057813;28;45560;-50
2022/12/13 10:04:37;;;;;;;;;41.00;31.50;;;;;2.30;48.72;100014.19;5067326;27;45361;-49
2022/12/13 10:07:08;;;;;;;;;35.75;33.00;;;;;2.31;48.65;100015.91;5080951;27;45476;-52
2022/12/13 10:09:34;;;;;;;;;45.50;31.75;;;;;2.33;48.45;100014.19;5063348;28;45649;-51
2022/12/13 10:11:59;;;;;;;;;40.25;30.50;;;;;2.34;48.87;100019.34;5067157;27;45420;-48
2022/12/13 10:14:33;;;;;;;;;42.75;27.00;;;;;2.37;48.71;100021.03;5071864;27;65333;-49
2022/12/13 10:17:03;;;;;;;;;39.50;29.00;;;;;2.42;48.50;100022.72;5074107;27;45274;-51
2022/12/13 10:19:44;;;;;;;;;46.00;31.25;;;;;2.44;48.49;100030.47;5071366;27;45474;-51
2022/12/13 10:22:15;;;;;;;;;43.75;32.75;;;;;2.45;48.94;100027.88;5071296;27;45496;-50
2022/12/13 10:24:52;;;;;;;;;48.75;36.00;;;;;2.49;48.03;100015.81;5079065;27;46344;-49
2022/12/13 10:27:25;;;;;;;;;45.50;30.50;;;;;2.45;48.41;100008.94;5069497;27;45798;-51
2022/12/13 10:30:02;;;;;;;;;37.50;30.75;;;;;2.49;48.32;100017.53;5076810;27;45488;-52
2022/12/13 10:32:29;;;;;;;;;42.00;30.25;;;;;2.52;48.30;100015.78;5061370;27;45541;-52
2022/12/13 10:34:55;;;;;;;;;47.25;30.00;;;;;2.58;48.27;100014.88;5078111;27;45568;-51
2022/12/13 10:37:30;;;;;;;;;36.50;28.25;;;;;2.59;48.05;100007.13;5074329;27;45412;-53
2022/12/13 10:39:57;;;;;;;;;38.00;29.25;;;;;2.57;47.89;99997.69;5074211;27;45729;-52
2022/12/13 10:42:22;;;;;;;;;45.75;35.00;;;;;2.61;48.16;99999.38;5063976;28;45431;-48
2022/12/13 10:44:48;;;;;;;;;46.75;32.25;;;;;2.65;47.88;100008.81;5093695;27;45622;-52
2022/12/13 10:47:20;;;;;;;;;37.50;30.50;;;;;2.64;47.83;100000.22;5069730;27;45503;-53
2022/12/13 10:49:57;;;;;;;;;41.00;27.25;;;;;2.66;46.99;100002.78;5074264;27;45302;-52
2022/12/13 10:52:31;;;;;;;;;40.75;27.25;;;;;2.71;47.30;100000.16;5069100;27;45257;-50
2022/12/13 10:55:04;;;;;;;;;37.75;31.00;;;;;2.71;47.31;99998.47;5076533;27;45526;-51
2022/12/13 10:57:29;;;;;;;;;37.75;26.25;;;;;2.73;47.55;99996.72;5079295;27;45846;-52
2022/12/13 10:59:55;;;;;;;;;45.00;33.75;;;;;2.80;47.43;99994.97;5077632;27;46862;-52
2022/12/13 11:02:37;;;;;;;;;28.00;23.25;;;;;2.85;47.66;99982.84;5069573;27;46056;-50
2022/12/13 11:05:21;;;;;;;;;43.25;29.50;;;;;2.89;46.95;99971.63;5074415;27;45512;-50
2022/12/13 11:07:46;;;;;;;;;40.25;24.00;;;;;2.91;47.15;99966.44;5064742;28;46190;-52
2022/12/13 11:10:22;;;;;;;;;42.50;29.00;;;;;2.91;47.18;99974.19;5063171;27;45469;-48
2022/12/13 11:12:48;;;;;;;;;35.50;25.50;;;;;2.86;47.05;99966.47;5071834;28;45254;-50
2022/12/13 11:15:18;;;;;;;;;34.50;26.00;;;;;2.81;46.64;99955.31;5068490;27;45313;-53
2022/12/13 11:17:52;;;;;;;;;40.75;26.00;;;;;2.84;47.37;99944.97;5070611;27;45849;-54
2022/12/13 11:20:21;;;;;;;;;38.00;28.50;;;;;2.87;46.87;99939.78;5067267;27;45334;-50
2022/12/13 11:22:48;;;;;;;;;39.25;25.50;;;;;2.92;46.46;99938.00;5094567;27;45473;-51
2022/12/13 11:25:25;;;;;;;;;42.25;25.25;;;;;2.94;46.69;99954.34;5077155;27;46066;-52
2022/12/13 11:28:12;;;;;;;;;45.00;32.75;;;;;2.98;46.73;99950.03;5090111;27;45270;-51
2022/12/13 11:31:16;;;;;;;;;37.25;28.25;;;;;3.04;46.75;99952.53;5070472;27;45508;-51
2022/12/13 11:34:04;;;;;;;;;31.50;23.25;;;;;3.07;46.52;99937.00;5068305;28;45519;-49